KOCW/OCW METAR and TAF weather

Enter ICAO airport designator
Station Type Date Time Source
KOCW METAR 2020/09/18 17:35 UTC NOAA

KOCW 181735Z AUTO 01009G16KT 5SM -DZ BKN009 OVC012 22/20 A2987 RMK AO2 P0002 T02150203


Station Type Date Time Source
KOCW Decoded METAR 2020/09/18 17:35 UTC NOAA

Washington, Warren Field Airport, NC, United States (KOCW) 35-34-14N 077-02-59W
Sep 18, 2020 - 01:35 PM EDT / 2020.09.18 1735 UTC
Wind: from the N (010 degrees) at 10 MPH (9 KT) gusting to 18 MPH (16 KT):0
Visibility: 5 mile(s):0
Sky conditions: overcast
Weather: light drizzle
Precipitation last hour: 0.02 inches
Temperature: 70.7 F (21.5 C)
Dew Point: 68.5 F (20.3 C)
Relative Humidity: 92%
Pressure (altimeter): 29.87 in. Hg (1011 hPa)
ob: KOCW 181735Z AUTO 01009G16KT 5SM -DZ BKN009 OVC012 22/20 A2987 RMK AO2 P0002 T02150203
cycle: 17

Station Type Date Time Source
KOCW TAF UTC NOAA

Error!

Example: see airport list